sensor_id;sensor_type;location;lat;lon;timestamp;temperature;humidity
54485;DHT22;45006;56.958;24.166;2022-11-13T00:03:37;21.70;86.90
54485;DHT22;45006;56.958;24.166;2022-11-13T00:06:05;21.60;86.90
54485;DHT22;45006;56.958;24.166;2022-11-13T00:08:32;21.70;87.00
54485;DHT22;45006;56.958;24.166;2022-11-13T00:11:07;21.70;87.10
54485;DHT22;45006;56.958;24.166;2022-11-13T00:13:34;21.70;87.10
54485;DHT22;45006;56.958;24.166;2022-11-13T00:16:04;21.70;87.20
54485;DHT22;45006;56.958;24.166;2022-11-13T00:18:33;21.70;87.30
54485;DHT22;45006;56.958;24.166;2022-11-13T00:21:05;21.70;87.20
54485;DHT22;45006;56.958;24.166;2022-11-13T00:23:34;21.70;87.40
54485;DHT22;45006;56.958;24.166;2022-11-13T00:26:06;21.70;87.60
54485;DHT22;45006;56.958;24.166;2022-11-13T00:28:33;21.70;87.60
54485;DHT22;45006;56.958;24.166;2022-11-13T00:31:00;21.70;87.80
54485;DHT22;45006;56.958;24.166;2022-11-13T00:33:28;21.70;87.80
54485;DHT22;45006;56.958;24.166;2022-11-13T00:36:25;21.70;87.80
54485;DHT22;45006;56.958;24.166;2022-11-13T00:38:53;21.70;87.60
54485;DHT22;45006;56.958;24.166;2022-11-13T00:41:21;21.70;87.50
54485;DHT22;45006;56.958;24.166;2022-11-13T00:43:48;21.70;87.60
54485;DHT22;45006;56.958;24.166;2022-11-13T00:46:15;21.70;87.40
54485;DHT22;45006;56.958;24.166;2022-11-13T00:48:42;21.70;87.60
54485;DHT22;45006;56.958;24.166;2022-11-13T00:51:09;21.70;87.60
54485;DHT22;45006;56.958;24.166;2022-11-13T00:53:36;21.80;87.70
54485;DHT22;45006;56.958;24.166;2022-11-13T00:56:04;21.80;87.90
54485;DHT22;45006;56.958;24.166;2022-11-13T00:58:31;21.80;87.80
54485;DHT22;45006;56.958;24.166;2022-11-13T01:01:09;21.80;87.80
54485;DHT22;45006;56.958;24.166;2022-11-13T01:03:37;21.80;87.80
54485;DHT22;45006;56.958;24.166;2022-11-13T01:06:11;21.80;87.70
54485;DHT22;45006;56.958;24.166;2022-11-13T01:08:38;21.80;87.70
54485;DHT22;45006;56.958;24.166;2022-11-13T01:11:15;21.80;87.60
54485;DHT22;45006;56.958;24.166;2022-11-13T01:13:44;21.80;87.60
54485;DHT22;45006;56.958;24.166;2022-11-13T01:16:12;21.80;87.60
54485;DHT22;45006;56.958;24.166;2022-11-13T01:18:40;21.80;87.60
54485;DHT22;45006;56.958;24.166;2022-11-13T01:21:18;21.80;87.60
54485;DHT22;45006;56.958;24.166;2022-11-13T01:23:45;21.80;87.60
54485;DHT22;45006;56.958;24.166;2022-11-13T01:26:24;21.80;87.60
54485;DHT22;45006;56.958;24.166;2022-11-13T01:28:52;21.80;87.60
54485;DHT22;45006;56.958;24.166;2022-11-13T01:31:22;21.90;87.60
54485;DHT22;45006;56.958;24.166;2022-11-13T01:33:50;21.80;87.60
54485;DHT22;45006;56.958;24.166;2022-11-13T01:36:22;21.80;87.60
54485;DHT22;45006;56.958;24.166;2022-11-13T01:38:49;21.80;87.80
54485;DHT22;45006;56.958;24.166;2022-11-13T01:41:30;21.80;87.70
54485;DHT22;45006;56.958;24.166;2022-11-13T01:43:58;21.90;87.50
54485;DHT22;45006;56.958;24.166;2022-11-13T01:46:32;21.80;87.70
54485;DHT22;45006;56.958;24.166;2022-11-13T01:51:38;21.80;87.60
54485;DHT22;45006;56.958;24.166;2022-11-13T01:54:10;21.90;87.70
54485;DHT22;45006;56.958;24.166;2022-11-13T01:56:39;21.90;87.60
54485;DHT22;45006;56.958;24.166;2022-11-13T01:59:13;21.90;87.60
54485;DHT22;45006;56.958;24.166;2022-11-13T02:01:41;21.90;87.60
54485;DHT22;45006;56.958;24.166;2022-11-13T02:04:08;21.90;87.60
54485;DHT22;45006;56.958;24.166;2022-11-13T02:06:53;21.90;87.60
54485;DHT22;45006;56.958;24.166;2022-11-13T02:09:26;21.90;87.50
54485;DHT22;45006;56.958;24.166;2022-11-13T02:11:54;21.90;87.50
54485;DHT22;45006;56.958;24.166;2022-11-13T02:14:23;21.90;87.40
54485;DHT22;45006;56.958;24.166;2022-11-13T02:16:54;21.90;87.40
54485;DHT22;45006;56.958;24.166;2022-11-13T02:19:28;21.90;87.50
54485;DHT22;45006;56.958;24.166;2022-11-13T02:22:05;21.90;88.10
54485;DHT22;45006;56.958;24.166;2022-11-13T02:24:40;21.90;87.40
54485;DHT22;45006;56.958;24.166;2022-11-13T02:27:50;21.90;87.40
54485;DHT22;45006;56.958;24.166;2022-11-13T02:30:26;21.90;87.40
54485;DHT22;45006;56.958;24.166;2022-11-13T02:32:54;21.90;87.40
54485;DHT22;45006;56.958;24.166;2022-11-13T02:35:29;21.90;87.40
54485;DHT22;45006;56.958;24.166;2022-11-13T02:37:59;21.90;87.40
54485;DHT22;45006;56.958;24.166;2022-11-13T02:40:26;21.90;87.40
54485;DHT22;45006;56.958;24.166;2022-11-13T02:42:53;21.90;87.40
54485;DHT22;45006;56.958;24.166;2022-11-13T02:45:20;21.90;87.40
54485;DHT22;45006;56.958;24.166;2022-11-13T02:47:47;21.90;87.40
54485;DHT22;45006;56.958;24.166;2022-11-13T02:50:17;21.90;87.30
54485;DHT22;45006;56.958;24.166;2022-11-13T02:52:44;21.90;87.40
54485;DHT22;45006;56.958;24.166;2022-11-13T02:55:11;21.90;87.30
54485;DHT22;45006;56.958;24.166;2022-11-13T02:57:37;21.90;87.40
54485;DHT22;45006;56.958;24.166;2022-11-13T03:00:05;21.90;87.20
54485;DHT22;45006;56.958;24.166;2022-11-13T03:02:39;21.90;87.20
54485;DHT22;45006;56.958;24.166;2022-11-13T03:05:06;21.90;87.20
54485;DHT22;45006;56.958;24.166;2022-11-13T03:07:39;21.90;87.20
54485;DHT22;45006;56.958;24.166;2022-11-13T03:10:07;21.90;87.20
54485;DHT22;45006;56.958;24.166;2022-11-13T03:12:34;21.90;87.10
54485;DHT22;45006;56.958;24.166;2022-11-13T03:15:01;22.00;87.20
54485;DHT22;45006;56.958;24.166;2022-11-13T03:17:31;21.90;87.20
54485;DHT22;45006;56.958;24.166;2022-11-13T03:19:59;21.90;87.30
54485;DHT22;45006;56.958;24.166;2022-11-13T03:22:26;22.00;87.40
54485;DHT22;45006;56.958;24.166;2022-11-13T03:24:53;22.00;87.40
54485;DHT22;45006;56.958;24.166;2022-11-13T03:27:20;22.00;87.20
54485;DHT22;45006;56.958;24.166;2022-11-13T03:29:48;22.00;87.20
54485;DHT22;45006;56.958;24.166;2022-11-13T03:32:14;21.90;87.10
54485;DHT22;45006;56.958;24.166;2022-11-13T03:34:41;22.00;87.10
54485;DHT22;45006;56.958;24.166;2022-11-13T03:37:08;22.00;87.00
54485;DHT22;45006;56.958;24.166;2022-11-13T03:39:35;22.00;87.10
54485;DHT22;45006;56.958;24.166;2022-11-13T03:42:02;22.00;87.10
54485;DHT22;45006;56.958;24.166;2022-11-13T03:44:29;21.90;87.00
54485;DHT22;45006;56.958;24.166;2022-11-13T03:46:56;22.00;87.00
54485;DHT22;45006;56.958;24.166;2022-11-13T03:49:23;22.00;86.90
54485;DHT22;45006;56.958;24.166;2022-11-13T03:51:50;21.90;86.90
54485;DHT22;45006;56.958;24.166;2022-11-13T03:54:16;22.00;86.90
54485;DHT22;45006;56.958;24.166;2022-11-13T03:56:43;22.00;86.80
54485;DHT22;45006;56.958;24.166;2022-11-13T03:59:10;21.90;86.80
54485;DHT22;45006;56.958;24.166;2022-11-13T04:01:37;22.00;86.90
54485;DHT22;45006;56.958;24.166;2022-11-13T04:04:04;22.00;87.00
54485;DHT22;45006;56.958;24.166;2022-11-13T04:06:31;22.00;86.90
54485;DHT22;45006;56.958;24.166;2022-11-13T04:08:57;22.00;86.80
54485;DHT22;45006;56.958;24.166;2022-11-13T04:11:24;22.00;86.80
54485;DHT22;45006;56.958;24.166;2022-11-13T04:13:51;22.00;86.90
54485;DHT22;45006;56.958;24.166;2022-11-13T04:16:18;22.00;86.80
54485;DHT22;45006;56.958;24.166;2022-11-13T04:18:45;22.00;86.70
54485;DHT22;45006;56.958;24.166;2022-11-13T04:21:11;22.00;86.80
54485;DHT22;45006;56.958;24.166;2022-11-13T04:23:38;22.00;86.70
54485;DHT22;45006;56.958;24.166;2022-11-13T04:26:05;22.00;86.80
54485;DHT22;45006;56.958;24.166;2022-11-13T04:28:32;22.00;86.80
54485;DHT22;45006;56.958;24.166;2022-11-13T04:30:59;22.00;86.70
54485;DHT22;45006;56.958;24.166;2022-11-13T04:33:26;22.00;86.70
54485;DHT22;45006;56.958;24.166;2022-11-13T04:35:53;21.90;86.70
54485;DHT22;45006;56.958;24.166;2022-11-13T04:38:20;22.00;86.80
54485;DHT22;45006;56.958;24.166;2022-11-13T04:40:50;22.00;86.90
54485;DHT22;45006;56.958;24.166;2022-11-13T04:43:37;22.00;87.00
54485;DHT22;45006;56.958;24.166;2022-11-13T04:46:04;22.00;87.00
54485;DHT22;45006;56.958;24.166;2022-11-13T04:48:31;22.00;87.00
54485;DHT22;45006;56.958;24.166;2022-11-13T04:50:58;22.00;86.90
54485;DHT22;45006;56.958;24.166;2022-11-13T04:53:25;22.00;87.00
54485;DHT22;45006;56.958;24.166;2022-11-13T04:55:52;22.00;86.90
54485;DHT22;45006;56.958;24.166;2022-11-13T04:58:19;22.00;86.90
54485;DHT22;45006;56.958;24.166;2022-11-13T05:00:46;22.00;86.90
54485;DHT22;45006;56.958;24.166;2022-11-13T05:03:13;22.00;86.90
54485;DHT22;45006;56.958;24.166;2022-11-13T05:05:40;22.00;86.90
54485;DHT22;45006;56.958;24.166;2022-11-13T05:08:07;22.00;86.80
54485;DHT22;45006;56.958;24.166;2022-11-13T05:10:33;22.00;86.70
54485;DHT22;45006;56.958;24.166;2022-11-13T05:13:00;22.00;86.70
54485;DHT22;45006;56.958;24.166;2022-11-13T05:15:27;22.00;86.70
54485;DHT22;45006;56.958;24.166;2022-11-13T05:17:54;22.00;86.70
54485;DHT22;45006;56.958;24.166;2022-11-13T05:20:21;22.00;86.60
54485;DHT22;45006;56.958;24.166;2022-11-13T05:22:48;22.00;86.60
54485;DHT22;45006;56.958;24.166;2022-11-13T05:25:15;22.00;86.60
54485;DHT22;45006;56.958;24.166;2022-11-13T05:27:42;22.00;86.60
54485;DHT22;45006;56.958;24.166;2022-11-13T05:30:09;22.00;87.00
54485;DHT22;45006;56.958;24.166;2022-11-13T05:32:36;22.00;87.00
54485;DHT22;45006;56.958;24.166;2022-11-13T05:35:03;22.00;86.90
54485;DHT22;45006;56.958;24.166;2022-11-13T05:37:30;22.00;86.90
54485;DHT22;45006;56.958;24.166;2022-11-13T05:39:56;22.00;86.90
54485;DHT22;45006;56.958;24.166;2022-11-13T05:42:23;22.00;86.90
54485;DHT22;45006;56.958;24.166;2022-11-13T05:44:50;22.00;86.90
54485;DHT22;45006;56.958;24.166;2022-11-13T05:47:17;22.00;87.00
54485;DHT22;45006;56.958;24.166;2022-11-13T05:49:44;22.00;86.90
54485;DHT22;45006;56.958;24.166;2022-11-13T05:52:10;22.00;86.90
54485;DHT22;45006;56.958;24.166;2022-11-13T05:54:37;22.00;86.90
54485;DHT22;45006;56.958;24.166;2022-11-13T05:57:04;22.00;86.80
54485;DHT22;45006;56.958;24.166;2022-11-13T05:59:31;22.00;86.80
54485;DHT22;45006;56.958;24.166;2022-11-13T06:01:58;22.00;86.70
54485;DHT22;45006;56.958;24.166;2022-11-13T06:04:25;22.00;86.70
54485;DHT22;45006;56.958;24.166;2022-11-13T06:06:52;22.00;86.70
54485;DHT22;45006;56.958;24.166;2022-11-13T06:09:18;22.00;86.70
54485;DHT22;45006;56.958;24.166;2022-11-13T06:11:45;22.00;86.70
54485;DHT22;45006;56.958;24.166;2022-11-13T06:14:12;22.00;86.70
54485;DHT22;45006;56.958;24.166;2022-11-13T06:16:39;22.00;86.70
54485;DHT22;45006;56.958;24.166;2022-11-13T06:19:08;22.00;86.70
54485;DHT22;45006;56.958;24.166;2022-11-13T06:21:38;22.00;86.70
54485;DHT22;45006;56.958;24.166;2022-11-13T06:24:06;22.00;86.60
54485;DHT22;45006;56.958;24.166;2022-11-13T06:26:34;22.10;86.60
54485;DHT22;45006;56.958;24.166;2022-11-13T06:29:03;22.10;86.60
54485;DHT22;45006;56.958;24.166;2022-11-13T06:31:33;22.10;86.50
54485;DHT22;45006;56.958;24.166;2022-11-13T06:34:00;22.10;86.50
54485;DHT22;45006;56.958;24.166;2022-11-13T06:36:33;22.10;86.60
54485;DHT22;45006;56.958;24.166;2022-11-13T06:39:00;22.10;86.50
54485;DHT22;45006;56.958;24.166;2022-11-13T06:41:29;22.10;86.40
54485;DHT22;45006;56.958;24.166;2022-11-13T06:43:58;22.00;86.30
54485;DHT22;45006;56.958;24.166;2022-11-13T06:46:29;22.10;86.50
54485;DHT22;45006;56.958;24.166;2022-11-13T06:48:57;22.10;86.50
54485;DHT22;45006;56.958;24.166;2022-11-13T06:51:27;22.10;86.40
54485;DHT22;45006;56.958;24.166;2022-11-13T06:53:55;22.10;86.40
54485;DHT22;45006;56.958;24.166;2022-11-13T06:56:22;22.10;86.40
54485;DHT22;45006;56.958;24.166;2022-11-13T06:58:49;22.10;86.30
54485;DHT22;45006;56.958;24.166;2022-11-13T07:01:19;22.10;86.30
54485;DHT22;45006;56.958;24.166;2022-11-13T07:03:46;22.10;86.40
54485;DHT22;45006;56.958;24.166;2022-11-13T07:06:15;22.10;86.40
54485;DHT22;45006;56.958;24.166;2022-11-13T07:08:43;22.10;86.40
54485;DHT22;45006;56.958;24.166;2022-11-13T07:11:13;22.10;86.40
54485;DHT22;45006;56.958;24.166;2022-11-13T07:13:41;22.10;86.40
54485;DHT22;45006;56.958;24.166;2022-11-13T07:16:09;22.10;86.40
54485;DHT22;45006;56.958;24.166;2022-11-13T07:18:47;22.10;86.60
54485;DHT22;45006;56.958;24.166;2022-11-13T07:21:14;22.10;86.40
54485;DHT22;45006;56.958;24.166;2022-11-13T07:23:41;22.10;86.80
54485;DHT22;45006;56.958;24.166;2022-11-13T07:26:12;22.10;86.50
54485;DHT22;45006;56.958;24.166;2022-11-13T07:28:39;22.10;86.50
54485;DHT22;45006;56.958;24.166;2022-11-13T07:31:06;22.10;86.50
54485;DHT22;45006;56.958;24.166;2022-11-13T07:33:33;22.10;86.50
54485;DHT22;45006;56.958;24.166;2022-11-13T07:36:00;22.10;86.60
54485;DHT22;45006;56.958;24.166;2022-11-13T07:38:27;22.10;86.70
54485;DHT22;45006;56.958;24.166;2022-11-13T07:40:57;22.20;86.60
54485;DHT22;45006;56.958;24.166;2022-11-13T07:43:24;22.20;86.90
54485;DHT22;45006;56.958;24.166;2022-11-13T07:45:51;22.20;87.10
54485;DHT22;45006;56.958;24.166;2022-11-13T07:48:21;22.20;87.10
54485;DHT22;45006;56.958;24.166;2022-11-13T07:50:49;22.20;87.20
54485;DHT22;45006;56.958;24.166;2022-11-13T07:53:17;22.20;87.30
54485;DHT22;45006;56.958;24.166;2022-11-13T07:55:44;22.20;87.20
54485;DHT22;45006;56.958;24.166;2022-11-13T07:58:11;22.20;87.40
54485;DHT22;45006;56.958;24.166;2022-11-13T08:00:39;22.20;87.30
54485;DHT22;45006;56.958;24.166;2022-11-13T08:03:06;22.20;87.40
54485;DHT22;45006;56.958;24.166;2022-11-13T08:05:34;22.20;87.30
54485;DHT22;45006;56.958;24.166;2022-11-13T08:08:01;22.20;87.50
54485;DHT22;45006;56.958;24.166;2022-11-13T08:10:29;22.20;87.50
54485;DHT22;45006;56.958;24.166;2022-11-13T08:13:04;22.20;87.50
54485;DHT22;45006;56.958;24.166;2022-11-13T08:15:32;22.20;87.70
54485;DHT22;45006;56.958;24.166;2022-11-13T08:18:01;22.20;87.60
54485;DHT22;45006;56.958;24.166;2022-11-13T08:20:29;22.20;87.70
54485;DHT22;45006;56.958;24.166;2022-11-13T08:22:57;22.20;88.40
54485;DHT22;45006;56.958;24.166;2022-11-13T08:25:25;22.20;87.70
54485;DHT22;45006;56.958;24.166;2022-11-13T08:27:53;22.20;87.70
54485;DHT22;45006;56.958;24.166;2022-11-13T08:30:21;22.30;88.10
54485;DHT22;45006;56.958;24.166;2022-11-13T08:32:49;22.30;88.70
54485;DHT22;45006;56.958;24.166;2022-11-13T08:35:16;22.30;88.00
54485;DHT22;45006;56.958;24.166;2022-11-13T08:37:46;22.30;86.90
54485;DHT22;45006;56.958;24.166;2022-11-13T08:40:13;22.30;86.20
54485;DHT22;45006;56.958;24.166;2022-11-13T08:42:40;22.30;86.90
54485;DHT22;45006;56.958;24.166;2022-11-13T08:45:08;22.30;86.40
54485;DHT22;45006;56.958;24.166;2022-11-13T08:47:35;22.30;86.50
54485;DHT22;45006;56.958;24.166;2022-11-13T08:50:04;22.30;87.10
54485;DHT22;45006;56.958;24.166;2022-11-13T08:52:31;22.30;86.50
54485;DHT22;45006;56.958;24.166;2022-11-13T08:54:58;22.30;86.50
54485;DHT22;45006;56.958;24.166;2022-11-13T08:57:25;22.30;86.20
54485;DHT22;45006;56.958;24.166;2022-11-13T08:59:52;22.30;85.40
54485;DHT22;45006;56.958;24.166;2022-11-13T09:02:19;22.30;86.00
54485;DHT22;45006;56.958;24.166;2022-11-13T09:04:46;22.30;85.70
54485;DHT22;45006;56.958;24.166;2022-11-13T09:07:12;22.30;85.20
54485;DHT22;45006;56.958;24.166;2022-11-13T09:09:39;22.30;85.20
54485;DHT22;45006;56.958;24.166;2022-11-13T09:12:07;22.30;85.40
54485;DHT22;45006;56.958;24.166;2022-11-13T09:14:35;22.30;84.70
54485;DHT22;45006;56.958;24.166;2022-11-13T09:17:02;22.30;84.60
54485;DHT22;45006;56.958;24.166;2022-11-13T09:19:28;22.30;84.80
54485;DHT22;45006;56.958;24.166;2022-11-13T09:21:55;22.30;84.80
54485;DHT22;45006;56.958;24.166;2022-11-13T09:24:22;22.30;84.90
54485;DHT22;45006;56.958;24.166;2022-11-13T09:26:49;22.30;84.90
54485;DHT22;45006;56.958;24.166;2022-11-13T09:29:16;22.30;85.00
54485;DHT22;45006;56.958;24.166;2022-11-13T09:31:44;22.30;85.00
54485;DHT22;45006;56.958;24.166;2022-11-13T09:34:11;22.30;85.00
54485;DHT22;45006;56.958;24.166;2022-11-13T09:36:37;22.30;85.00
54485;DHT22;45006;56.958;24.166;2022-11-13T09:39:05;22.30;85.00
54485;DHT22;45006;56.958;24.166;2022-11-13T09:41:55;22.30;85.00
54485;DHT22;45006;56.958;24.166;2022-11-13T09:44:28;22.30;85.00
54485;DHT22;45006;56.958;24.166;2022-11-13T09:47:17;22.30;85.00
54485;DHT22;45006;56.958;24.166;2022-11-13T09:49:52;22.30;85.00
54485;DHT22;45006;56.958;24.166;2022-11-13T09:52:32;22.30;85.00
54485;DHT22;45006;56.958;24.166;2022-11-13T09:54:59;22.30;84.90
54485;DHT22;45006;56.958;24.166;2022-11-13T10:16:18;22.30;84.80
54485;DHT22;45006;56.958;24.166;2022-11-13T10:18:48;22.30;84.70
54485;DHT22;45006;56.958;24.166;2022-11-13T10:21:38;22.30;84.70
54485;DHT22;45006;56.958;24.166;2022-11-13T10:24:21;22.30;84.70
54485;DHT22;45006;56.958;24.166;2022-11-13T10:26:50;22.30;84.60
54485;DHT22;45006;56.958;24.166;2022-11-13T10:29:19;22.30;84.60
54485;DHT22;45006;56.958;24.166;2022-11-13T10:31:49;22.30;84.60
54485;DHT22;45006;56.958;24.166;2022-11-13T10:34:18;22.30;84.60
54485;DHT22;45006;56.958;24.166;2022-11-13T10:37:26;22.30;84.50
54485;DHT22;45006;56.958;24.166;2022-11-13T10:39:58;22.30;84.70
54485;DHT22;45006;56.958;24.166;2022-11-13T10:42:28;22.30;84.80
54485;DHT22;45006;56.958;24.166;2022-11-13T10:44:58;22.30;84.70
54485;DHT22;45006;56.958;24.166;2022-11-13T10:47:28;22.30;84.60
54485;DHT22;45006;56.958;24.166;2022-11-13T10:50:27;22.30;84.50
54485;DHT22;45006;56.958;24.166;2022-11-13T10:52:55;22.30;84.50
54485;DHT22;45006;56.958;24.166;2022-11-13T10:58:02;22.30;84.40
54485;DHT22;45006;56.958;24.166;2022-11-13T11:00:31;22.30;84.30
54485;DHT22;45006;56.958;24.166;2022-11-13T11:02:59;22.30;84.30
54485;DHT22;45006;56.958;24.166;2022-11-13T11:05:27;22.30;84.20
54485;DHT22;45006;56.958;24.166;2022-11-13T11:07:55;22.30;84.20
54485;DHT22;45006;56.958;24.166;2022-11-13T11:10:34;22.30;84.10
54485;DHT22;45006;56.958;24.166;2022-11-13T11:13:18;22.40;84.30
54485;DHT22;45006;56.958;24.166;2022-11-13T11:15:50;22.40;84.40
54485;DHT22;45006;56.958;24.166;2022-11-13T11:18:31;22.40;84.50
54485;DHT22;45006;56.958;24.166;2022-11-13T11:21:05;22.30;84.10
54485;DHT22;45006;56.958;24.166;2022-11-13T11:26:41;22.30;83.60
54485;DHT22;45006;56.958;24.166;2022-11-13T11:32:00;22.30;83.80
54485;DHT22;45006;56.958;24.166;2022-11-13T11:34:32;22.30;83.80
54485;DHT22;45006;56.958;24.166;2022-11-13T11:37:17;22.30;83.80
54485;DHT22;45006;56.958;24.166;2022-11-13T11:39:59;22.30;83.70
54485;DHT22;45006;56.958;24.166;2022-11-13T11:45:10;22.30;83.80
54485;DHT22;45006;56.958;24.166;2022-11-13T11:47:38;22.30;83.80
54485;DHT22;45006;56.958;24.166;2022-11-13T11:50:16;22.30;83.80
54485;DHT22;45006;56.958;24.166;2022-11-13T11:53:02;22.30;83.70
54485;DHT22;45006;56.958;24.166;2022-11-13T12:04:15;22.30;83.70
54485;DHT22;45006;56.958;24.166;2022-11-13T12:09:40;22.30;83.70
54485;DHT22;45006;56.958;24.166;2022-11-13T12:17:44;22.30;83.60
54485;DHT22;45006;56.958;24.166;2022-11-13T12:22:56;22.30;83.60
54485;DHT22;45006;56.958;24.166;2022-11-13T12:25:35;22.30;83.50
54485;DHT22;45006;56.958;24.166;2022-11-13T12:36:13;22.30;83.10
54485;DHT22;45006;56.958;24.166;2022-11-13T12:38:50;22.30;83.00
54485;DHT22;45006;56.958;24.166;2022-11-13T12:41:42;22.30;83.00
54485;DHT22;45006;56.958;24.166;2022-11-13T12:44:25;22.30;82.80
54485;DHT22;45006;56.958;24.166;2022-11-13T12:46:54;22.30;82.90
54485;DHT22;45006;56.958;24.166;2022-11-13T12:51:56;22.40;82.70
54485;DHT22;45006;56.958;24.166;2022-11-13T12:54:34;22.30;82.50
54485;DHT22;45006;56.958;24.166;2022-11-13T12:57:23;22.30;82.30
54485;DHT22;45006;56.958;24.166;2022-11-13T12:59:57;22.30;82.10
54485;DHT22;45006;56.958;24.166;2022-11-13T13:05:15;22.30;82.50
54485;DHT22;45006;56.958;24.166;2022-11-13T13:15:41;22.30;81.40
54485;DHT22;45006;56.958;24.166;2022-11-13T13:18:29;22.40;80.90
54485;DHT22;45006;56.958;24.166;2022-11-13T13:21:12;22.30;81.10
54485;DHT22;45006;56.958;24.166;2022-11-13T13:23:49;22.30;80.90
54485;DHT22;45006;56.958;24.166;2022-11-13T13:29:00;22.30;81.20
54485;DHT22;45006;56.958;24.166;2022-11-13T13:48:30;22.30;82.20
54485;DHT22;45006;56.958;24.166;2022-11-13T13:50:59;22.30;82.10
54485;DHT22;45006;56.958;24.166;2022-11-13T13:53:30;22.30;82.20
54485;DHT22;45006;56.958;24.166;2022-11-13T13:55:58;22.30;82.20
54485;DHT22;45006;56.958;24.166;2022-11-13T13:58:35;22.30;82.00
54485;DHT22;45006;56.958;24.166;2022-11-13T14:01:05;22.30;81.80
54485;DHT22;45006;56.958;24.166;2022-11-13T14:03:45;22.30;81.60
54485;DHT22;45006;56.958;24.166;2022-11-13T14:06:23;22.30;81.60
54485;DHT22;45006;56.958;24.166;2022-11-13T14:08:50;22.30;81.80
54485;DHT22;45006;56.958;24.166;2022-11-13T14:11:25;22.30;81.80
54485;DHT22;45006;56.958;24.166;2022-11-13T14:14:06;22.30;81.90
54485;DHT22;45006;56.958;24.166;2022-11-13T14:16:45;22.30;81.90
54485;DHT22;45006;56.958;24.166;2022-11-13T14:19:12;22.30;81.90
54485;DHT22;45006;56.958;24.166;2022-11-13T14:21:40;22.30;81.90
54485;DHT22;45006;56.958;24.166;2022-11-13T14:24:14;22.30;82.00
54485;DHT22;45006;56.958;24.166;2022-11-13T14:26:42;22.30;82.00
54485;DHT22;45006;56.958;24.166;2022-11-13T14:29:20;22.30;82.10
54485;DHT22;45006;56.958;24.166;2022-11-13T14:31:48;22.30;82.30
54485;DHT22;45006;56.958;24.166;2022-11-13T14:34:19;22.30;82.20
54485;DHT22;45006;56.958;24.166;2022-11-13T14:36:46;22.30;82.20
54485;DHT22;45006;56.958;24.166;2022-11-13T14:39:26;22.30;82.30
54485;DHT22;45006;56.958;24.166;2022-11-13T14:41:58;22.30;82.40
54485;DHT22;45006;56.958;24.166;2022-11-13T14:44:30;22.30;82.40
54485;DHT22;45006;56.958;24.166;2022-11-13T14:47:04;22.30;82.50
54485;DHT22;45006;56.958;24.166;2022-11-13T14:49:35;22.30;82.50
54485;DHT22;45006;56.958;24.166;2022-11-13T14:52:03;22.30;82.50
54485;DHT22;45006;56.958;24.166;2022-11-13T14:54:34;22.30;82.50
54485;DHT22;45006;56.958;24.166;2022-11-13T14:57:23;22.30;82.60
54485;DHT22;45006;56.958;24.166;2022-11-13T14:59:50;22.30;82.70
54485;DHT22;45006;56.958;24.166;2022-11-13T15:02:17;22.30;82.70
54485;DHT22;45006;56.958;24.166;2022-11-13T15:04:46;22.30;82.80
54485;DHT22;45006;56.958;24.166;2022-11-13T15:07:31;22.30;82.80
54485;DHT22;45006;56.958;24.166;2022-11-13T15:09:59;22.30;82.80
54485;DHT22;45006;56.958;24.166;2022-11-13T15:12:27;22.30;82.90
54485;DHT22;45006;56.958;24.166;2022-11-13T15:14:55;22.30;82.90
54485;DHT22;45006;56.958;24.166;2022-11-13T15:17:23;22.30;83.00
54485;DHT22;45006;56.958;24.166;2022-11-13T15:19:53;22.30;83.00
54485;DHT22;45006;56.958;24.166;2022-11-13T15:22:22;22.30;83.00
54485;DHT22;45006;56.958;24.166;2022-11-13T15:24:54;22.30;83.00
54485;DHT22;45006;56.958;24.166;2022-11-13T15:27:21;22.30;83.10
54485;DHT22;45006;56.958;24.166;2022-11-13T15:29:49;22.30;83.10
54485;DHT22;45006;56.958;24.166;2022-11-13T15:32:17;22.30;83.30
54485;DHT22;45006;56.958;24.166;2022-11-13T15:34:44;22.30;83.20
54485;DHT22;45006;56.958;24.166;2022-11-13T15:37:14;22.30;83.20
54485;DHT22;45006;56.958;24.166;2022-11-13T15:39:41;22.30;83.30
54485;DHT22;45006;56.958;24.166;2022-11-13T15:42:13;22.30;83.20
54485;DHT22;45006;56.958;24.166;2022-11-13T15:44:41;22.30;83.20
54485;DHT22;45006;56.958;24.166;2022-11-13T15:47:28;22.30;83.20
54485;DHT22;45006;56.958;24.166;2022-11-13T15:49:56;22.30;83.20
54485;DHT22;45006;56.958;24.166;2022-11-13T15:52:46;22.30;83.20
54485;DHT22;45006;56.958;24.166;2022-11-13T15:55:33;22.20;83.30
54485;DHT22;45006;56.958;24.166;2022-11-13T15:58:00;22.30;83.40
54485;DHT22;45006;56.958;24.166;2022-11-13T16:00:29;22.30;83.60
54485;DHT22;45006;56.958;24.166;2022-11-13T16:02:56;22.20;83.50
54485;DHT22;45006;56.958;24.166;2022-11-13T16:05:24;22.20;83.60
54485;DHT22;45006;56.958;24.166;2022-11-13T16:07:52;22.20;83.50
54485;DHT22;45006;56.958;24.166;2022-11-13T16:10:20;22.20;84.30
54485;DHT22;45006;56.958;24.166;2022-11-13T16:12:47;22.30;84.00
54485;DHT22;45006;56.958;24.166;2022-11-13T16:15:15;22.30;84.10
54485;DHT22;45006;56.958;24.166;2022-11-13T16:17:48;22.30;84.10
54485;DHT22;45006;56.958;24.166;2022-11-13T16:20:16;22.30;84.40
54485;DHT22;45006;56.958;24.166;2022-11-13T16:22:44;22.30;84.50
54485;DHT22;45006;56.958;24.166;2022-11-13T16:25:20;22.30;84.90
54485;DHT22;45006;56.958;24.166;2022-11-13T16:27:53;22.30;84.60
54485;DHT22;45006;56.958;24.166;2022-11-13T16:30:27;22.30;84.90
54485;DHT22;45006;56.958;24.166;2022-11-13T16:32:56;22.30;84.70
54485;DHT22;45006;56.958;24.166;2022-11-13T16:35:23;22.20;84.70
54485;DHT22;45006;56.958;24.166;2022-11-13T16:37:50;22.30;84.60
54485;DHT22;45006;56.958;24.166;2022-11-13T16:40:26;22.30;84.60
54485;DHT22;45006;56.958;24.166;2022-11-13T16:42:53;22.30;84.50
54485;DHT22;45006;56.958;24.166;2022-11-13T16:45:20;22.30;84.30
54485;DHT22;45006;56.958;24.166;2022-11-13T16:47:48;22.30;84.30
54485;DHT22;45006;56.958;24.166;2022-11-13T16:50:22;22.30;84.30
54485;DHT22;45006;56.958;24.166;2022-11-13T16:52:52;22.20;84.10
54485;DHT22;45006;56.958;24.166;2022-11-13T16:55:19;22.30;84.20
54485;DHT22;45006;56.958;24.166;2022-11-13T16:57:46;22.20;84.00
54485;DHT22;45006;56.958;24.166;2022-11-13T17:00:16;22.20;84.00
54485;DHT22;45006;56.958;24.166;2022-11-13T17:02:43;22.20;84.00
54485;DHT22;45006;56.958;24.166;2022-11-13T17:05:14;22.20;84.00
54485;DHT22;45006;56.958;24.166;2022-11-13T17:07:41;22.20;84.00
54485;DHT22;45006;56.958;24.166;2022-11-13T17:10:14;22.20;84.10